Time;durP1;ratioP1;P1;durP2;ratioP2;P2;SDS_P1;SDS_P2;PMS_P1;PMS_P2;Temp;Humidity;BMP_temperature;BMP_pressure;BME280_temperature;BME280_humidity;BME280_pressure;Samples;Min_cycle;Max_cycle;Signal;HPM_P1;HPM_P2
2023/09/12 00:00:41;;;;;;;18.20;11.10;;;20.90;99.90;;;;;;4995744;28;19925;-42
2023/09/12 00:03:07;;;;;;;19.38;11.82;;;20.90;99.90;;;;;;4995723;28;20050;-42
2023/09/12 00:05:32;;;;;;;18.67;12.02;;;20.90;99.90;;;;;;4995757;28;20069;-42
2023/09/12 00:07:58;;;;;;;18.92;12.38;;;20.90;99.90;;;;;;4995682;28;20136;-43
2023/09/12 00:10:24;;;;;;;21.25;11.45;;;20.80;99.90;;;;;;4978397;28;20047;-42
2023/09/12 00:12:50;;;;;;;19.38;11.52;;;20.80;99.90;;;;;;4995545;28;20069;-42
2023/09/12 00:15:16;;;;;;;18.48;12.27;;;20.80;99.90;;;;;;4995288;28;20042;-42
2023/09/12 00:17:41;;;;;;;18.02;11.63;;;20.80;99.90;;;;;;4978403;28;20046;-43
2023/09/12 00:20:08;;;;;;;19.52;12.02;;;20.70;99.90;;;;;;4995982;28;20050;-42
2023/09/12 00:22:33;;;;;;;17.83;11.98;;;20.70;99.90;;;;;;5010899;28;20522;-42
2023/09/12 00:24:59;;;;;;;18.25;12.10;;;20.70;99.90;;;;;;4995400;28;20085;-42
2023/09/12 00:27:25;;;;;;;17.35;11.18;;;20.70;99.90;;;;;;4995101;28;20372;-42
2023/09/12 00:29:50;;;;;;;18.00;10.93;;;20.70;99.90;;;;;;4995073;28;20051;-42
2023/09/12 00:32:16;;;;;;;16.63;11.15;;;20.70;99.90;;;;;;4995559;28;20390;-43
2023/09/12 00:34:42;;;;;;;16.58;10.65;;;20.70;99.90;;;;;;4994594;28;20050;-43
2023/09/12 00:37:07;;;;;;;19.98;11.75;;;20.60;99.90;;;;;;4995092;28;20129;-43
2023/09/12 00:39:33;;;;;;;15.73;10.77;;;20.60;99.90;;;;;;4995071;28;20050;-42
2023/09/12 00:41:59;;;;;;;20.95;12.13;;;20.70;99.90;;;;;;4994976;28;20053;-43
2023/09/12 00:44:24;;;;;;;18.55;11.25;;;20.70;99.90;;;;;;4994935;28;20093;-42
2023/09/12 00:46:51;;;;;;;17.85;10.90;;;20.60;99.90;;;;;;4995143;28;20046;-42
2023/09/12 00:49:18;;;;;;;17.35;11.00;;;20.60;99.90;;;;;;4994920;28;20090;-42
2023/09/12 00:51:44;;;;;;;18.85;11.25;;;20.60;99.90;;;;;;4994910;28;20039;-43
2023/09/12 00:54:10;;;;;;;19.30;11.82;;;20.60;99.90;;;;;;4994717;28;20403;-42
2023/09/12 00:56:36;;;;;;;;;;;20.70;99.90;;;;;;4992899;28;20069;-42
2023/09/12 00:59:03;;;;;;;20.02;11.93;;;20.60;99.90;;;;;;4994635;28;19921;-43
2023/09/12 01:01:29;;;;;;;19.17;11.73;;;20.60;99.90;;;;;;4977503;28;20057;-42
2023/09/12 01:03:55;;;;;;;17.63;11.88;;;20.60;99.90;;;;;;4995070;28;20096;-42
2023/09/12 01:06:26;;;;;;;19.38;11.77;;;20.60;99.90;;;;;;4994514;28;20058;-44
2023/09/12 01:08:52;;;;;;;18.42;11.52;;;20.60;99.90;;;;;;4994666;28;20058;-42
2023/09/12 01:11:19;;;;;;;18.20;11.90;;;20.70;99.90;;;;;;4994480;28;20082;-43
2023/09/12 01:13:44;;;;;;;21.27;12.15;;;20.70;99.90;;;;;;4994259;28;20050;-44
2023/09/12 01:16:10;;;;;;;19.48;12.52;;;20.70;99.90;;;;;;4994499;28;20053;-42
2023/09/12 01:18:36;;;;;;;18.17;11.32;;;20.60;99.90;;;;;;4977035;28;20046;-42
2023/09/12 01:21:22;;;;;;;18.73;11.63;;;20.60;99.90;;;;;;4994478;28;20042;-42
2023/09/12 01:24:04;;;;;;;19.65;11.05;;;20.70;99.90;;;;;;4994395;28;20124;-43
2023/09/12 01:26:54;;;;;;;20.63;11.63;;;20.60;99.90;;;;;;4994388;28;20050;-42
2023/09/12 01:29:22;;;;;;;19.42;12.25;;;20.60;99.90;;;;;;4979511;28;20513;-42
2023/09/12 01:31:49;;;;;;;18.05;11.40;;;20.60;99.90;;;;;;4994260;28;20039;-42
2023/09/12 01:34:14;;;;;;;17.50;11.27;;;20.60;99.90;;;;;;4994151;28;20046;-42
2023/09/12 01:36:40;;;;;;;18.42;11.13;;;20.60;99.90;;;;;;4976826;28;20051;-44
2023/09/12 01:39:06;;;;;;;18.42;11.15;;;20.60;99.90;;;;;;4994232;28;20073;-42
2023/09/12 01:41:35;;;;;;;16.83;10.68;;;20.60;99.90;;;;;;4994597;28;20047;-42
2023/09/12 01:44:02;;;;;;;18.20;11.48;;;20.60;99.90;;;;;;4994432;28;20090;-42
2023/09/12 01:46:30;;;;;;;20.42;12.20;;;20.60;99.90;;;;;;4997224;28;20061;-42
2023/09/12 01:48:58;;;;;;;21.42;12.40;;;20.50;99.90;;;;;;4998245;28;20058;-43
2023/09/12 01:51:25;;;;;;;19.95;12.13;;;20.50;99.90;;;;;;4997850;28;20451;-43
2023/09/12 01:53:52;;;;;;;20.15;11.00;;;20.50;99.90;;;;;;4998101;28;20053;-42
2023/09/12 01:56:19;;;;;;;20.65;11.20;;;20.50;99.90;;;;;;4997881;28;20129;-43
2023/09/12 01:58:45;;;;;;;20.20;11.10;;;20.50;99.90;;;;;;4998092;28;20089;-42
2023/09/12 02:01:11;;;;;;;19.80;11.40;;;20.50;99.90;;;;;;4997855;28;20088;-43
2023/09/12 02:03:37;;;;;;;;;;;20.40;99.90;;;;;;4998175;28;20046;-43
2023/09/12 02:06:02;;;;;;;21.20;12.15;;;20.40;99.90;;;;;;4997995;28;19933;-42
2023/09/12 02:08:28;;;;;;;22.60;12.80;;;20.40;99.90;;;;;;4997917;28;20050;-42
2023/09/12 02:10:54;;;;;;;20.58;11.77;;;20.40;99.90;;;;;;4980536;28;20043;-42
2023/09/12 02:13:20;;;;;;;;;;;20.40;99.90;;;;;;4998193;28;20049;-43
2023/09/12 02:15:45;;;;;;;18.73;10.48;;;20.40;99.90;;;;;;4997604;28;19922;-43
2023/09/12 02:18:11;;;;;;;17.00;10.07;;;20.30;99.90;;;;;;4997577;28;20085;-43
2023/09/12 02:20:40;;;;;;;17.55;10.40;;;20.30;99.90;;;;;;4998028;28;20109;-43
2023/09/12 02:23:05;;;;;;;19.95;10.55;;;20.20;99.90;;;;;;4997770;28;20050;-42
2023/09/12 02:25:31;;;;;;;17.50;10.35;;;20.20;99.90;;;;;;4997764;28;20129;-43
2023/09/12 02:27:57;;;;;;;16.55;9.60;;;20.20;99.90;;;;;;4980289;28;20093;-42
2023/09/12 02:30:22;;;;;;;18.08;10.52;;;20.10;99.90;;;;;;4997490;28;20054;-42
2023/09/12 02:32:48;;;;;;;16.48;10.57;;;20.00;99.90;;;;;;4997342;28;20120;-43
2023/09/12 02:35:14;;;;;;;15.52;9.98;;;20.00;99.90;;;;;;4997522;28;20048;-43
2023/09/12 02:37:39;;;;;;;16.55;10.68;;;20.00;99.90;;;;;;4997098;28;20050;-43
2023/09/12 02:40:06;;;;;;;20.02;11.75;;;20.00;99.90;;;;;;4979844;28;20046;-43
2023/09/12 02:42:32;;;;;;;20.75;12.32;;;19.90;99.90;;;;;;4997095;28;20104;-42
2023/09/12 02:44:58;;;;;;;18.52;11.68;;;19.90;99.90;;;;;;4997160;28;20129;-43
2023/09/12 02:47:23;;;;;;;21.77;12.23;;;19.90;99.90;;;;;;4979996;28;20049;-42
2023/09/12 02:49:49;;;;;;;18.30;11.05;;;19.90;99.90;;;;;;4996939;28;20108;-43
2023/09/12 02:52:15;;;;;;;21.50;12.88;;;19.90;99.90;;;;;;4996824;28;20039;-42
2023/09/12 02:54:40;;;;;;;22.45;12.90;;;19.80;99.90;;;;;;4996978;28;20054;-43
2023/09/12 02:57:06;;;;;;;20.85;12.55;;;19.80;99.90;;;;;;4996226;28;20059;-43
2023/09/12 02:59:32;;;;;;;21.02;11.52;;;19.80;99.90;;;;;;4996940;28;20062;-42
2023/09/12 03:01:58;;;;;;;22.70;13.00;;;19.80;99.90;;;;;;4996827;28;20483;-42
2023/09/12 03:04:25;;;;;;;;;;;19.80;99.90;;;;;;4997078;28;20082;-42
2023/09/12 03:06:51;;;;;;;20.90;13.38;;;19.70;99.90;;;;;;4979594;28;19964;-42
2023/09/12 03:09:18;;;;;;;21.00;13.77;;;19.80;99.90;;;;;;4996639;28;20140;-43
2023/09/12 03:11:44;;;;;;;22.15;13.45;;;19.70;99.90;;;;;;4996898;28;20146;-42
2023/09/12 03:14:09;;;;;;;22.17;13.00;;;19.70;99.90;;;;;;4996594;28;20553;-42
2023/09/12 03:16:36;;;;;;;23.40;14.65;;;19.80;99.90;;;;;;4996552;28;20062;-43
2023/09/12 03:19:02;;;;;;;21.52;13.23;;;19.80;99.90;;;;;;4996660;28;20054;-43
2023/09/12 03:21:28;;;;;;;23.65;13.82;;;19.80;99.90;;;;;;4996572;28;20058;-43
2023/09/12 03:23:54;;;;;;;24.50;13.70;;;19.80;99.90;;;;;;4979169;28;20050;-43
2023/09/12 03:26:19;;;;;;;24.38;13.63;;;19.80;99.90;;;;;;4996445;28;20132;-43
2023/09/12 03:28:45;;;;;;;24.70;14.82;;;19.80;99.90;;;;;;4996428;28;20058;-43
2023/09/12 03:31:13;;;;;;;56.00;16.10;;;19.80;99.90;;;;;;4996180;28;20046;-43
2023/09/12 03:33:40;;;;;;;21.10;13.50;;;19.80;99.90;;;;;;4996331;28;20053;-42
2023/09/12 03:36:07;;;;;;;21.35;12.98;;;19.80;99.90;;;;;;4996271;28;20069;-43
2023/09/12 03:38:33;;;;;;;23.02;13.50;;;19.80;99.90;;;;;;4996224;28;20046;-42
2023/09/12 03:40:59;;;;;;;21.90;12.50;;;19.70;99.90;;;;;;4996139;28;20484;-42
2023/09/12 03:43:25;;;;;;;23.08;12.95;;;19.70;99.90;;;;;;4979072;28;20172;-42
2023/09/12 03:45:51;;;;;;;22.60;13.35;;;19.70;99.90;;;;;;4996119;28;20133;-42
2023/09/12 03:48:16;;;;;;;21.85;12.30;;;19.70;99.90;;;;;;4995807;28;20065;-43
2023/09/12 03:50:42;;;;;;;20.55;12.57;;;19.70;99.90;;;;;;4978710;28;20049;-42
2023/09/12 03:53:08;;;;;;;22.40;13.05;;;19.70;99.90;;;;;;4995901;28;20042;-43
2023/09/12 03:55:34;;;;;;;;;;;19.70;99.90;;;;;;4996404;28;20128;-42
2023/09/12 03:57:59;;;;;;;24.48;12.90;;;19.60;99.90;;;;;;4991432;28;19922;-42
2023/09/12 04:00:25;;;;;;;22.10;12.68;;;19.60;99.90;;;;;;4995701;28;20090;-43
2023/09/12 04:02:51;;;;;;;24.17;12.52;;;19.60;99.90;;;;;;4995837;28;20377;-43
2023/09/12 04:05:17;;;;;;;21.52;12.30;;;19.60;99.90;;;;;;4995765;28;20045;-43
2023/09/12 04:07:42;;;;;;;23.48;13.35;;;19.50;99.90;;;;;;4978578;28;20092;-43
2023/09/12 04:10:08;;;;;;;16.23;11.07;;;19.50;99.90;;;;;;4995564;28;20077;-43
2023/09/12 04:12:34;;;;;;;21.73;12.52;;;19.50;99.90;;;;;;4995624;28;20046;-43
2023/09/12 04:15:00;;;;;;;19.27;11.02;;;19.60;99.90;;;;;;4995490;28;20042;-42
2023/09/12 04:17:25;;;;;;;19.38;11.55;;;19.60;99.90;;;;;;4978395;28;20053;-42
2023/09/12 04:19:51;;;;;;;21.90;12.68;;;19.60;99.90;;;;;;4995528;28;20050;-43
2023/09/12 04:22:16;;;;;;;24.27;12.50;;;19.60;99.90;;;;;;4995452;28;20046;-42
2023/09/12 04:24:42;;;;;;;22.02;12.85;;;19.60;99.90;;;;;;4995413;28;20053;-42
2023/09/12 04:27:08;;;;;;;22.95;12.45;;;19.60;99.90;;;;;;4995170;28;20479;-42
2023/09/12 04:29:34;;;;;;;22.02;12.05;;;19.60;99.90;;;;;;4995040;28;20047;-43
2023/09/12 04:32:03;;;;;;;21.83;13.13;;;19.50;99.90;;;;;;4995172;28;20054;-43
2023/09/12 04:34:29;;;;;;;23.10;12.82;;;19.50;99.90;;;;;;4978012;28;20132;-42
2023/09/12 04:36:54;;;;;;;24.35;13.55;;;19.50;99.90;;;;;;4995151;28;20523;-43
2023/09/12 04:39:20;;;;;;;23.20;12.93;;;19.50;99.90;;;;;;4995008;28;20096;-43
2023/09/12 04:41:46;;;;;;;23.58;12.70;;;19.50;99.90;;;;;;4995023;28;20046;-42
2023/09/12 04:44:11;;;;;;;24.95;13.70;;;19.50;99.90;;;;;;4994943;28;20042;-42
2023/09/12 04:46:37;;;;;;;20.38;12.68;;;19.50;99.90;;;;;;4977805;28;20038;-42
2023/09/12 04:49:03;;;;;;;25.20;13.25;;;19.50;99.90;;;;;;4994946;28;20055;-42
2023/09/12 04:51:29;;;;;;;20.95;12.77;;;19.40;99.90;;;;;;4994859;28;20065;-43
2023/09/12 04:53:55;;;;;;;24.67;13.02;;;19.40;99.90;;;;;;4995182;28;20101;-43
2023/09/12 04:56:21;;;;;;;22.92;12.88;;;19.40;99.90;;;;;;4994858;28;20514;-42
2023/09/12 04:58:46;;;;;;;19.58;11.60;;;19.40;99.90;;;;;;4995068;28;20407;-43
2023/09/12 05:01:12;;;;;;;21.80;13.02;;;19.40;99.90;;;;;;4995041;28;20086;-43
2023/09/12 05:03:38;;;;;;;16.55;10.57;;;19.40;99.90;;;;;;5010194;28;20419;-42
2023/09/12 05:06:03;;;;;;;19.25;11.00;;;19.40;99.90;;;;;;4994832;28;20042;-42
2023/09/12 05:08:29;;;;;;;18.85;10.82;;;19.30;99.90;;;;;;4994655;28;20050;-42
2023/09/12 05:10:55;;;;;;;19.42;11.48;;;19.20;99.90;;;;;;4994301;28;20050;-43
2023/09/12 05:13:21;;;;;;;21.70;11.50;;;19.20;99.90;;;;;;4994399;28;20054;-42
2023/09/12 05:15:47;;;;;;;19.48;11.88;;;19.10;99.90;;;;;;4977138;28;20054;-42
2023/09/12 05:18:12;;;;;;;22.42;12.57;;;19.10;99.90;;;;;;5009896;28;20088;-42
2023/09/12 05:20:38;;;;;;;20.17;11.15;;;19.00;99.90;;;;;;4993888;28;20453;-42
2023/09/12 05:23:04;;;;;;;18.35;10.70;;;19.10;99.90;;;;;;4994416;28;20042;-42
2023/09/12 05:25:30;;;;;;;18.45;11.55;;;19.10;99.90;;;;;;4994346;28;20181;-42
2023/09/12 05:27:56;;;;;;;19.05;11.10;;;19.10;99.90;;;;;;4994160;28;20050;-43
2023/09/12 05:30:22;;;;;;;18.20;10.88;;;19.00;99.90;;;;;;4994122;28;20049;-42
2023/09/12 05:32:48;;;;;;;18.40;10.77;;;19.00;99.90;;;;;;4994231;28;20085;-42
2023/09/12 05:35:13;;;;;;;17.13;11.20;;;19.00;99.90;;;;;;4994235;28;20097;-42
2023/09/12 05:37:39;;;;;;;17.05;10.10;;;19.00;99.90;;;;;;4994114;28;20046;-42
2023/09/12 05:40:06;;;;;;;18.00;10.65;;;19.00;99.90;;;;;;4994089;28;20058;-42
2023/09/12 05:42:31;;;;;;;17.27;10.05;;;18.90;99.90;;;;;;4994072;28;20058;-42
2023/09/12 05:44:57;;;;;;;15.48;9.43;;;18.90;99.90;;;;;;4993993;28;20054;-43
2023/09/12 05:47:23;;;;;;;17.25;10.90;;;18.80;99.90;;;;;;4994448;28;20050;-43
2023/09/12 05:49:50;;;;;;;16.65;10.18;;;18.80;99.90;;;;;;4994165;28;20047;-45
2023/09/12 05:52:15;;;;;;;16.83;10.27;;;18.80;99.90;;;;;;4993999;28;20053;-43
2023/09/12 05:54:41;;;;;;;16.70;9.90;;;18.70;99.90;;;;;;4994125;28;20046;-42
2023/09/12 05:57:08;;;;;;;17.88;10.98;;;18.70;99.90;;;;;;4993783;28;20054;-45
2023/09/12 05:59:37;;;;;;;;;;;18.70;99.90;;;;;;4994353;28;20061;-43
2023/09/12 06:02:05;;;;;;;14.30;8.82;;;18.60;99.90;;;;;;4994040;28;19972;-43
2023/09/12 06:04:34;;;;;;;12.20;8.15;;;18.70;99.90;;;;;;4994008;28;20042;-42
2023/09/12 06:07:04;;;;;;;13.20;7.85;;;18.60;99.90;;;;;;4993839;28;20046;-43
2023/09/12 06:09:29;;;;;;;11.90;8.18;;;18.60;99.90;;;;;;4993869;28;20052;-42
2023/09/12 06:11:55;;;;;;;12.50;7.80;;;18.60;99.90;;;;;;4993771;28;20047;-44
2023/09/12 06:14:21;;;;;;;15.52;9.45;;;18.60;99.90;;;;;;4994157;28;20047;-43
2023/09/12 06:16:46;;;;;;;18.02;10.25;;;18.70;99.90;;;;;;4994089;28;20502;-42
2023/09/12 06:19:14;;;;;;;17.63;10.45;;;18.70;99.90;;;;;;4993904;28;20447;-43
2023/09/12 06:21:40;;;;;;;21.42;12.75;;;18.70;99.90;;;;;;4993891;28;20044;-44
2023/09/12 06:24:16;;;;;;;25.65;14.80;;;18.80;99.90;;;;;;4993790;28;20054;-43
2023/09/12 06:26:42;;;;;;;25.23;14.73;;;18.80;99.90;;;;;;4993803;28;20054;-43
2023/09/12 06:29:08;;;;;;;26.27;15.60;;;18.90;99.90;;;;;;4994042;28;20569;-42
2023/09/12 06:31:35;;;;;;;27.23;14.90;;;18.90;99.90;;;;;;4993840;28;20075;-43
2023/09/12 06:34:01;;;;;;;27.95;15.15;;;19.00;99.90;;;;;;4997505;28;20125;-42
2023/09/12 06:36:29;;;;;;;;;;;19.10;99.90;;;;;;4997672;28;20050;-42
2023/09/12 06:38:55;;;;;;;29.27;14.45;;;19.10;99.90;;;;;;4980072;28;19926;-42
2023/09/12 06:41:21;;;;;;;27.15;14.68;;;19.10;99.90;;;;;;4997040;28;20043;-42
2023/09/12 06:43:47;;;;;;;28.02;14.90;;;19.10;99.90;;;;;;4997290;28;20180;-42
2023/09/12 06:46:14;;;;;;;27.02;14.30;;;19.10;99.90;;;;;;4997255;28;20121;-43
2023/09/12 06:48:39;;;;;;;30.30;15.57;;;19.10;99.90;;;;;;4997234;28;20053;-43
2023/09/12 06:51:08;;;;;;;27.20;14.13;;;19.20;99.90;;;;;;4997082;28;20046;-43
2023/09/12 06:53:33;;;;;;;31.38;16.00;;;19.20;99.90;;;;;;4996852;28;20487;-42
2023/09/12 06:55:59;;;;;;;31.88;15.65;;;19.20;99.90;;;;;;4997081;28;20056;-42
2023/09/12 06:58:25;;;;;;;32.25;16.23;;;19.20;99.90;;;;;;4996934;28;20104;-42
2023/09/12 07:00:51;;;;;;;31.25;15.35;;;19.20;99.90;;;;;;4996689;28;20514;-42
2023/09/12 07:03:17;;;;;;;30.45;14.90;;;19.20;99.90;;;;;;5012551;28;20050;-42
2023/09/12 07:05:43;;;;;;;29.63;15.27;;;19.30;99.90;;;;;;4996735;28;20053;-43
2023/09/12 07:08:09;;;;;;;;;;;19.30;99.90;;;;;;4997116;28;20137;-42
2023/09/12 07:10:35;;;;;;;34.03;17.27;;;19.30;99.90;;;;;;4996457;28;20037;-42
2023/09/12 07:13:01;;;;;;;;;;;19.30;99.90;;;;;;4997396;28;20058;-42
2023/09/12 07:15:27;;;;;;;32.33;16.33;;;19.30;99.90;;;;;;4996647;28;19949;-42
2023/09/12 07:17:52;;;;;;;32.00;15.77;;;19.30;99.90;;;;;;4996735;28;20381;-43
2023/09/12 07:20:19;;;;;;;33.05;17.13;;;19.30;99.90;;;;;;4996683;28;20046;-42
2023/09/12 07:22:46;;;;;;;33.80;16.80;;;19.30;99.90;;;;;;4996282;28;20046;-43
2023/09/12 07:25:15;;;;;;;34.65;16.42;;;19.30;99.90;;;;;;4996562;28;20399;-42
2023/09/12 07:27:40;;;;;;;33.10;14.32;;;19.30;99.90;;;;;;4996231;28;20476;-42
2023/09/12 07:30:07;;;;;;;33.63;15.85;;;19.40;99.90;;;;;;4996417;28;20050;-43
2023/09/12 07:32:33;;;;;;;29.48;14.85;;;19.40;99.90;;;;;;4996293;28;20046;-42
2023/09/12 07:34:59;;;;;;;35.08;15.82;;;19.40;99.90;;;;;;4996454;28;20065;-42
2023/09/12 07:37:25;;;;;;;33.08;15.52;;;19.40;99.90;;;;;;4996215;28;20050;-43
2023/09/12 07:39:50;;;;;;;34.05;14.38;;;19.50;99.90;;;;;;4996283;28;20049;-43
2023/09/12 07:42:16;;;;;;;34.63;16.73;;;19.50;99.90;;;;;;4996610;28;20434;-43
2023/09/12 07:44:42;;;;;;;35.38;15.32;;;19.50;99.90;;;;;;4995786;28;20046;-43
2023/09/12 07:47:08;;;;;;;31.90;15.40;;;19.60;99.90;;;;;;4996306;28;20097;-42
2023/09/12 07:49:33;;;;;;;35.53;15.90;;;19.60;99.90;;;;;;5011312;28;20097;-42
2023/09/12 07:51:59;;;;;;;35.65;17.75;;;19.60;99.90;;;;;;4995643;28;20081;-43
2023/09/12 07:54:24;;;;;;;37.15;16.23;;;19.60;99.90;;;;;;4978891;28;20053;-42
2023/09/12 07:56:50;;;;;;;35.88;16.25;;;19.70;99.90;;;;;;4996077;28;20042;-42
2023/09/12 07:59:16;;;;;;;35.35;16.65;;;19.70;99.90;;;;;;4975120;28;20514;-42
2023/09/12 08:01:42;;;;;;;34.97;16.30;;;19.80;99.90;;;;;;4976439;28;20051;-42
2023/09/12 08:04:08;;;;;;;34.70;16.63;;;19.80;99.90;;;;;;4976578;28;20047;-42
2023/09/12 08:06:33;;;;;;;32.83;16.73;;;19.80;99.90;;;;;;4976192;28;20050;-44
2023/09/12 08:09:00;;;;;;;34.63;16.50;;;19.90;99.90;;;;;;4976197;28;20058;-42
2023/09/12 08:11:27;;;;;;;31.73;16.58;;;19.90;99.90;;;;;;4976541;28;20083;-43
2023/09/12 08:13:52;;;;;;;32.10;15.85;;;19.90;99.90;;;;;;4976495;28;20055;-43
2023/09/12 08:16:18;;;;;;;33.28;15.00;;;19.90;99.90;;;;;;4976040;28;20054;-44
2023/09/12 08:18:44;;;;;;;30.55;15.60;;;19.90;99.90;;;;;;4976058;28;20043;-42
2023/09/12 08:21:10;;;;;;;29.73;15.15;;;19.90;99.90;;;;;;4975912;28;20094;-42
2023/09/12 08:23:36;;;;;;;35.25;16.75;;;20.00;99.90;;;;;;4976031;28;20046;-42
2023/09/12 08:26:02;;;;;;;31.17;15.63;;;20.00;99.90;;;;;;4976091;28;20054;-42
2023/09/12 08:28:27;;;;;;;30.65;15.98;;;20.00;99.90;;;;;;4975816;28;20455;-43
2023/09/12 08:30:53;;;;;;;29.77;14.90;;;20.10;99.90;;;;;;4974793;28;20101;-42
2023/09/12 08:33:18;;;;;;;30.80;16.02;;;20.10;99.90;;;;;;4975887;28;20090;-43
2023/09/12 08:35:44;;;;;;;30.00;15.43;;;20.20;99.90;;;;;;4975811;28;20043;-42
2023/09/12 08:38:10;;;;;;;29.17;15.05;;;20.20;99.90;;;;;;4975663;28;20508;-42
2023/09/12 08:40:36;;;;;;;30.05;15.27;;;20.20;99.90;;;;;;4958684;28;20055;-42
2023/09/12 08:43:03;;;;;;;32.60;15.35;;;20.20;99.90;;;;;;4975575;28;20055;-43
2023/09/12 08:45:29;;;;;;;29.48;14.93;;;20.20;99.90;;;;;;4974706;28;20058;-44
2023/09/12 08:47:58;;;;;;;29.27;15.05;;;20.20;99.90;;;;;;4975584;28;20073;-42
2023/09/12 08:50:24;;;;;;;28.70;14.85;;;20.20;99.90;;;;;;4975252;28;20050;-43
2023/09/12 08:52:51;;;;;;;25.30;12.75;;;20.30;99.90;;;;;;4976059;28;20456;-43
2023/09/12 08:55:17;;;;;;;25.55;13.13;;;20.30;99.90;;;;;;4974822;28;20043;-42
2023/09/12 08:57:46;;;;;;;26.48;13.02;;;20.30;99.90;;;;;;4979133;28;20054;-42
2023/09/12 09:00:12;;;;;;;25.65;13.77;;;20.30;99.90;;;;;;4994658;28;20420;-42
2023/09/12 09:02:42;;;;;;;24.75;13.05;;;20.40;99.90;;;;;;4994556;28;20547;-42
2023/09/12 09:05:10;;;;;;;25.83;12.95;;;20.40;99.90;;;;;;4994550;28;20050;-42
2023/09/12 09:07:37;;;;;;;23.95;12.10;;;20.40;99.90;;;;;;4994792;28;20392;-42
2023/09/12 09:10:05;;;;;;;25.60;12.93;;;20.40;99.90;;;;;;4994988;28;20050;-42
2023/09/12 09:12:32;;;;;;;22.05;12.07;;;20.40;99.90;;;;;;4994485;28;20053;-43
2023/09/12 09:14:57;;;;;;;26.15;13.65;;;20.40;99.90;;;;;;4994560;28;20106;-41
2023/09/12 09:17:23;;;;;;;23.63;12.88;;;20.40;99.90;;;;;;4994463;28;20078;-42
2023/09/12 09:19:49;;;;;;;24.90;12.48;;;20.50;99.90;;;;;;4994718;28;20518;-42
2023/09/12 09:22:15;;;;;;;25.45;12.60;;;20.50;99.90;;;;;;4994815;28;20121;-42
2023/09/12 09:24:41;;;;;;;25.55;12.43;;;20.50;99.90;;;;;;4994671;28;20415;-44
2023/09/12 09:27:07;;;;;;;24.35;12.60;;;20.50;99.90;;;;;;4994347;28;20050;-42
2023/09/12 09:29:46;;;;;;;24.80;12.07;;;20.60;99.90;;;;;;4994388;28;20050;-42
2023/09/12 09:32:18;;;;;;;23.70;12.77;;;20.60;99.90;;;;;;4976799;28;20475;-42
2023/09/12 09:34:44;;;;;;;26.02;13.30;;;20.70;99.90;;;;;;4994736;28;20461;-43
2023/09/12 09:37:09;;;;;;;24.33;12.75;;;20.70;99.90;;;;;;4994329;28;20134;-42
2023/09/12 09:39:35;;;;;;;23.75;12.50;;;20.70;99.90;;;;;;4994177;28;20046;-42
2023/09/12 09:42:01;;;;;;;24.35;12.27;;;20.80;99.90;;;;;;4994169;28;20053;-43
2023/09/12 09:44:28;;;;;;;26.20;13.07;;;20.80;99.90;;;;;;4994046;28;20087;-41
2023/09/12 09:47:02;;;;;;;24.95;12.25;;;20.80;99.90;;;;;;4994012;28;20408;-43
2023/09/12 09:49:31;;;;;;;27.67;13.60;;;20.80;99.90;;;;;;4994231;28;20075;-43
2023/09/12 09:51:58;;;;;;;26.02;12.70;;;20.80;99.90;;;;;;4994572;28;20085;-44
2023/09/12 09:54:25;;;;;;;27.95;13.60;;;20.90;99.90;;;;;;4993827;28;20054;-43
2023/09/12 09:56:55;;;;;;;;;;;21.00;99.90;;;;;;4994375;28;20058;-42
2023/09/12 09:59:25;;;;;;;19.73;11.43;;;21.00;99.90;;;;;;4993831;28;19929;-42
2023/09/12 10:01:58;;;;;;;23.65;12.43;;;21.00;99.90;;;;;;4994158;28;20093;-42
2023/09/12 10:04:26;;;;;;;24.58;13.10;;;21.10;99.90;;;;;;4994100;28;20053;-42
2023/09/12 10:06:56;;;;;;;25.33;13.07;;;21.20;99.90;;;;;;4996005;28;20476;-42
2023/09/12 10:09:25;;;;;;;24.27;12.68;;;21.20;99.90;;;;;;5013464;28;20046;-42
2023/09/12 10:11:52;;;;;;;23.95;12.05;;;21.30;99.90;;;;;;4997802;28;20047;-42
2023/09/12 10:14:19;;;;;;;22.48;11.63;;;21.40;99.90;;;;;;4980487;28;20055;-42
2023/09/12 10:16:47;;;;;;;24.48;13.43;;;21.50;99.90;;;;;;4997840;28;20054;-42
2023/09/12 10:19:42;;;;;;;24.42;12.68;;;21.60;99.90;;;;;;4997850;28;20057;-42
2023/09/12 10:22:34;;;;;;;22.02;11.68;;;21.60;99.90;;;;;;4991235;28;20432;-42
2023/09/12 10:25:00;;;;;;;24.23;12.07;;;21.70;99.90;;;;;;4998067;28;20056;-42
2023/09/12 10:27:27;;;;;;;26.73;12.90;;;21.70;99.90;;;;;;4997945;28;20046;-42
2023/09/12 10:29:53;;;;;;;22.02;12.10;;;21.80;99.90;;;;;;4997451;28;20436;-42
2023/09/12 10:32:20;;;;;;;;;;;21.90;99.90;;;;;;4997750;28;20125;-42
2023/09/12 10:34:48;;;;;;;24.35;12.90;;;21.90;99.90;;;;;;4997389;28;19929;-42
2023/09/12 10:37:16;;;;;;;21.85;11.65;;;22.10;99.90;;;;;;4997421;28;20487;-42
2023/09/12 10:39:43;;;;;;;21.45;11.65;;;22.20;99.90;;;;;;4997401;28;20046;-42
2023/09/12 10:42:10;;;;;;;26.50;12.65;;;22.20;99.90;;;;;;4997669;28;20152;-42
2023/09/12 10:44:36;;;;;;;20.88;12.35;;;22.20;99.90;;;;;;4997151;28;20133;-42
2023/09/12 10:47:03;;;;;;;24.33;12.15;;;22.30;99.90;;;;;;4997172;28;20085;-42
2023/09/12 10:49:30;;;;;;;22.05;12.63;;;22.30;99.90;;;;;;4996923;28;20380;-43
2023/09/12 10:51:57;;;;;;;20.88;11.68;;;22.30;99.90;;;;;;4997079;28;20499;-42
2023/09/12 10:54:24;;;;;;;23.05;12.20;;;22.30;99.90;;;;;;4997130;28;20053;-43
2023/09/12 10:57:07;;;;;;;22.88;11.68;;;22.30;99.90;;;;;;4997043;28;20051;-43
2023/09/12 10:59:35;;;;;;;21.77;11.43;;;22.20;99.90;;;;;;4996906;28;20058;-42
2023/09/12 11:02:39;;;;;;;23.50;12.55;;;22.20;99.90;;;;;;4996939;28;20057;-42
2023/09/12 11:05:06;;;;;;;22.92;10.98;;;22.30;99.90;;;;;;4979581;28;20054;-42
2023/09/12 11:07:38;;;;;;;19.45;10.38;;;22.30;99.90;;;;;;4979842;28;20138;-42
2023/09/12 11:10:14;;;;;;;21.63;11.85;;;22.40;99.90;;;;;;4996653;28;20144;-43
2023/09/12 11:12:41;;;;;;;19.48;11.32;;;22.40;99.90;;;;;;4996688;28;20051;-44
2023/09/12 11:15:08;;;;;;;18.58;11.05;;;22.40;99.90;;;;;;4979639;28;20133;-42
2023/09/12 11:18:01;;;;;;;21.10;11.52;;;22.50;99.90;;;;;;4995952;28;20480;-42
2023/09/12 11:20:49;;;;;;;25.50;13.38;;;22.60;99.90;;;;;;4990086;28;20058;-43
2023/09/12 11:23:14;;;;;;;25.23;12.70;;;22.70;99.90;;;;;;4996703;28;20050;-43
2023/09/12 11:25:40;;;;;;;20.77;11.57;;;22.60;99.90;;;;;;4996603;28;20046;-43
2023/09/12 11:28:06;;;;;;;23.88;13.00;;;22.60;99.90;;;;;;4996775;28;20049;-43
2023/09/12 11:30:32;;;;;;;21.00;11.85;;;22.60;99.90;;;;;;4979221;28;20476;-43
2023/09/12 11:32:58;;;;;;;;;;;22.60;99.90;;;;;;4996759;28;20046;-43
2023/09/12 11:35:26;;;;;;;20.43;11.47;;;22.60;99.90;;;;;;4979026;28;19933;-43
2023/09/12 11:37:55;;;;;;;22.58;11.43;;;22.60;99.90;;;;;;4996313;28;20046;-43
2023/09/12 11:40:25;;;;;;;21.33;11.13;;;22.60;99.90;;;;;;4996322;28;20061;-44
2023/09/12 11:42:51;;;;;;;21.33;11.50;;;22.60;99.90;;;;;;4996176;28;20072;-43
2023/09/12 11:45:21;;;;;;;22.23;11.23;;;22.60;99.90;;;;;;4996066;28;20046;-43
2023/09/12 11:47:47;;;;;;;22.63;11.98;;;22.70;99.90;;;;;;4978844;28;20045;-43
2023/09/12 11:50:55;;;;;;;21.20;11.40;;;22.60;99.90;;;;;;4979145;28;20093;-43
2023/09/12 11:53:26;;;;;;;21.42;11.05;;;22.70;99.90;;;;;;4935942;29;20134;-43
2023/09/12 11:55:58;;;;;;;21.10;11.48;;;22.80;99.90;;;;;;4971502;28;20054;-44
2023/09/12 11:58:25;;;;;;;22.98;11.98;;;22.90;99.90;;;;;;5010920;28;20408;-44
2023/09/12 12:00:53;;;;;;;19.73;10.32;;;22.90;99.90;;;;;;4995644;28;20050;-43
2023/09/12 12:03:24;;;;;;;19.23;10.02;;;23.00;99.90;;;;;;4995835;28;20121;-43
2023/09/12 12:05:50;;;;;;;20.55;10.45;;;23.10;99.90;;;;;;4995744;28;20105;-43
2023/09/12 12:08:17;;;;;;;17.58;10.40;;;23.10;99.90;;;;;;4995730;28;20133;-43
2023/09/12 12:10:43;;;;;;;21.27;11.02;;;23.10;99.90;;;;;;4995538;28;20042;-43
2023/09/12 12:13:16;;;;;;;;;;;23.10;99.90;;;;;;4979052;28;20058;-43
2023/09/12 12:15:42;;;;;;;20.25;10.65;;;23.00;99.90;;;;;;4995646;28;19969;-43
2023/09/12 12:18:07;;;;;;;;;;;23.00;99.90;;;;;;4995997;28;20558;-43
2023/09/12 12:20:33;;;;;;;19.30;10.77;;;23.00;99.90;;;;;;4995569;28;20064;-43
2023/09/12 12:22:59;;;;;;;;;;;23.10;99.90;;;;;;4995765;28;20049;-43
2023/09/12 12:25:24;;;;;;;19.60;9.98;;;23.10;99.90;;;;;;4995247;28;19921;-44
2023/09/12 12:27:50;;;;;;;;;;;23.20;99.90;;;;;;4995802;28;20054;-44
2023/09/12 12:30:17;;;;;;;20.38;10.95;;;23.10;99.90;;;;;;4994367;28;19922;-43
2023/09/12 12:32:51;;;;;;;20.83;10.93;;;23.10;99.90;;;;;;4995227;28;20389;-43